Time;durP1;ratioP1;P1;durP2;ratioP2;P2;SDS_P1;SDS_P2;PMS_P1;PMS_P2;Temp;Humidity;BMP_temperature;BMP_pressure;BME280_temperature;BME280_humidity;BME280_pressure;Samples;Min_cycle;Max_cycle;Signal;HPM_P1;HPM_P2
2022/09/19 00:01:47;;;;;;;2.92;2.72;;;21.70;60.20;;;;;;5021184;28;20034;-53
2022/09/19 00:04:17;;;;;;;3.28;2.92;;;21.70;60.20;;;;;;5020235;28;20037;-51
2022/09/19 00:06:44;;;;;;;2.90;2.70;;;21.70;60.10;;;;;;5020381;28;20034;-53
2022/09/19 00:09:12;;;;;;;3.05;2.85;;;21.70;60.10;;;;;;5020319;28;20030;-54
2022/09/19 00:11:39;;;;;;;3.13;2.85;;;21.70;60.30;;;;;;5020731;28;20652;-54
2022/09/19 00:14:06;;;;;;;3.10;2.90;;;21.60;60.10;;;;;;5020423;28;20038;-54
2022/09/19 00:16:34;;;;;;;4.28;3.15;;;21.60;60.20;;;;;;5020612;28;20038;-53
2022/09/19 00:19:01;;;;;;;3.67;3.30;;;21.60;60.30;;;;;;5020374;28;20053;-52
2022/09/19 00:21:28;;;;;;;;;;;21.60;60.50;;;;;;5020176;28;20026;-54
2022/09/19 00:26:39;;;;;;;3.95;3.55;;;21.60;60.30;;;;;;5050630;28;20046;-58
2022/09/19 00:29:07;;;;;;;4.00;3.70;;;21.50;60.20;;;;;;5083126;28;20036;-59
2022/09/19 00:31:33;;;;;;;4.93;4.43;;;21.50;60.20;;;;;;5087275;28;20114;-52
2022/09/19 00:34:00;;;;;;;5.10;4.60;;;21.50;60.20;;;;;;5106533;28;20039;-53
2022/09/19 00:36:27;;;;;;;5.25;4.63;;;21.50;60.10;;;;;;5103981;28;20028;-54
2022/09/19 00:38:53;;;;;;;9.27;5.53;;;21.50;60.30;;;;;;5106004;28;20039;-54
2022/09/19 00:41:21;;;;;;;6.00;5.40;;;21.40;60.50;;;;;;5102733;28;20024;-53
2022/09/19 00:43:49;;;;;;;8.20;5.18;;;21.40;60.90;;;;;;5083891;28;20028;-51
2022/09/19 00:46:15;;;;;;;6.25;5.38;;;21.40;61.20;;;;;;5098601;28;20043;-49
2022/09/19 00:48:42;;;;;;;7.78;5.57;;;21.40;62.70;;;;;;5106219;28;20506;-59
2022/09/19 00:51:20;;;;;;;6.55;5.70;;;21.40;63.00;;;;;;5106312;28;20166;-59
2022/09/19 00:53:46;;;;;;;6.47;5.40;;;21.40;62.60;;;;;;5095530;28;20032;-58
2022/09/19 00:56:14;;;;;;;6.50;5.47;;;21.40;62.90;;;;;;5107126;28;20035;-51
2022/09/19 00:59:01;;;;;;;16.48;5.85;;;21.30;63.30;;;;;;5100018;28;20070;-47
2022/09/19 01:01:27;;;;;;;12.38;6.07;;;21.30;64.40;;;;;;5017429;28;20030;-47
2022/09/19 01:03:53;;;;;;;9.20;5.70;;;21.30;65.50;;;;;;5039724;28;20049;-48
2022/09/19 01:06:35;;;;;;;6.88;4.75;;;21.30;65.70;;;;;;5040494;28;20040;-52
2022/09/19 01:09:26;;;;;;;9.20;5.47;;;21.30;65.40;;;;;;5022896;28;20081;-51
2022/09/19 01:12:01;;;;;;;10.35;5.68;;;21.30;65.00;;;;;;5022561;28;20045;-54
2022/09/19 01:15:08;;;;;;;8.30;4.93;;;21.30;64.70;;;;;;5023300;28;20093;-55
2022/09/19 01:17:57;;;;;;;7.43;5.15;;;21.30;64.60;;;;;;5038233;28;20037;-54
2022/09/19 01:20:41;;;;;;;6.93;4.80;;;21.30;64.40;;;;;;5037660;28;20095;-53
2022/09/19 01:23:40;;;;;;;6.93;4.97;;;21.30;64.40;;;;;;5038553;28;20072;-48
2022/09/19 01:26:43;;;;;;;6.07;4.60;;;21.30;65.10;;;;;;5037875;28;20037;-48
2022/09/19 01:29:14;;;;;;;8.23;4.80;;;21.30;65.00;;;;;;5038885;28;20025;-48
2022/09/19 01:31:45;;;;;;;7.18;4.40;;;21.30;65.00;;;;;;5021827;28;20128;-48
2022/09/19 01:34:33;;;;;;;8.02;5.15;;;21.30;65.30;;;;;;5022488;28;20056;-41
2022/09/19 01:37:16;;;;;;;9.52;5.13;;;21.30;65.50;;;;;;5023589;28;20033;-48
2022/09/19 01:39:46;;;;;;;10.48;9.38;;;21.40;65.60;;;;;;5062058;28;20051;-48
2022/09/19 01:42:13;;;;;;;6.55;5.30;;;21.40;65.80;;;;;;5064494;28;20024;-49
2022/09/19 01:44:40;;;;;;;5.68;4.68;;;21.30;65.60;;;;;;5100671;28;20028;-50
2022/09/19 01:47:15;;;;;;;7.25;5.18;;;21.40;65.50;;;;;;5101456;28;20032;-47
2022/09/19 01:49:58;;;;;;;6.78;4.88;;;21.40;65.40;;;;;;5099409;28;20024;-46
2022/09/19 01:52:30;;;;;;;4.70;4.30;;;21.40;65.30;;;;;;5099643;28;20089;-49
2022/09/19 01:55:08;;;;;;;6.25;5.03;;;21.40;65.20;;;;;;5102183;28;20101;-46
2022/09/19 01:57:51;;;;;;;6.35;5.13;;;21.40;65.30;;;;;;5100924;28;20028;-53
2022/09/19 02:00:20;;;;;;;7.13;5.80;;;21.40;65.40;;;;;;5109026;28;20060;-46
2022/09/19 02:03:05;;;;;;;6.95;5.90;;;21.40;64.90;;;;;;5099850;28;20032;-44
2022/09/19 02:05:48;;;;;;;6.82;6.13;;;21.40;64.40;;;;;;5103339;28;20590;-43
2022/09/19 02:08:37;;;;;;;6.22;5.63;;;21.40;64.00;;;;;;5120836;28;20030;-44
2022/09/19 02:11:11;;;;;;;6.10;5.30;;;21.30;63.20;;;;;;5101943;28;20031;-47
2022/09/19 02:13:40;;;;;;;6.22;5.63;;;21.30;62.80;;;;;;5079552;28;20050;-45
2022/09/19 02:16:30;;;;;;;6.65;6.00;;;21.20;62.30;;;;;;5107271;28;20035;-45
2022/09/19 02:18:59;;;;;;;5.93;5.22;;;21.20;62.10;;;;;;5083575;28;20036;-46
2022/09/19 02:21:40;;;;;;;7.22;5.55;;;21.10;61.80;;;;;;5104915;28;20020;-45
2022/09/19 02:24:10;;;;;;;6.05;5.35;;;21.10;61.60;;;;;;5104091;28;20049;-55
2022/09/19 02:26:37;;;;;;;6.38;5.75;;;21.20;61.80;;;;;;5099871;28;20055;-43
2022/09/19 02:29:03;;;;;;;7.20;5.35;;;21.20;61.80;;;;;;5100499;28;20024;-48
2022/09/19 02:31:30;;;;;;;6.30;5.70;;;21.20;61.40;;;;;;5081888;28;20047;-46
2022/09/19 02:34:00;;;;;;;5.53;5.03;;;21.20;61.00;;;;;;5099938;28;20114;-46
2022/09/19 02:36:33;;;;;;;5.82;5.25;;;21.20;60.70;;;;;;5082862;28;20495;-46
2022/09/19 02:39:39;;;;;;;5.70;5.20;;;21.20;60.50;;;;;;5081632;28;20051;-48
2022/09/19 02:42:14;;;;;;;5.70;5.20;;;21.20;60.30;;;;;;5100981;28;20082;-47
2022/09/19 02:44:47;;;;;;;6.53;5.07;;;21.20;60.30;;;;;;5100057;28;20032;-47
2022/09/19 02:47:26;;;;;;;4.88;4.40;;;21.20;60.30;;;;;;5082647;28;20047;-45
2022/09/19 02:50:02;;;;;;;5.22;4.82;;;21.20;60.80;;;;;;5082263;28;20058;-44
2022/09/19 02:52:33;;;;;;;5.63;5.13;;;21.10;61.20;;;;;;5090856;28;20028;-46
2022/09/19 02:55:23;;;;;;;5.40;4.90;;;21.10;61.40;;;;;;5100519;28;20074;-47
2022/09/19 02:57:51;;;;;;;5.63;5.13;;;21.10;61.50;;;;;;5099302;28;20036;-46
2022/09/19 03:00:17;;;;;;;5.82;5.32;;;21.10;61.40;;;;;;5064656;28;20028;-45
2022/09/19 03:02:46;;;;;;;5.40;4.90;;;21.10;61.10;;;;;;5072693;28;20075;-46
2022/09/19 03:05:15;;;;;;;6.07;5.00;;;21.10;60.70;;;;;;5060692;28;20032;-45
2022/09/19 03:08:15;;;;;;;5.30;4.80;;;21.10;60.40;;;;;;5078435;28;20053;-45
2022/09/19 03:10:42;;;;;;;4.93;4.53;;;21.10;60.40;;;;;;5059970;28;20040;-45
2022/09/19 03:13:10;;;;;;;5.95;5.38;;;21.10;60.80;;;;;;5099585;28;20054;-48
2022/09/19 03:15:40;;;;;;;5.45;4.95;;;21.00;61.00;;;;;;5079017;28;20036;-45
2022/09/19 03:18:13;;;;;;;5.72;5.22;;;21.00;61.10;;;;;;5069664;28;20044;-47
2022/09/19 03:20:39;;;;;;;5.50;5.00;;;21.00;61.20;;;;;;5094975;28;20028;-46
2022/09/19 03:23:06;;;;;;;4.90;4.50;;;21.00;61.30;;;;;;5099959;28;20028;-46
2022/09/19 03:25:32;;;;;;;5.15;4.72;;;21.00;61.40;;;;;;5084487;28;20032;-47
2022/09/19 03:27:59;;;;;;;5.38;4.97;;;20.90;61.50;;;;;;5106268;28;20032;-47
2022/09/19 03:30:25;;;;;;;5.40;4.90;;;20.90;61.60;;;;;;5103779;28;20419;-47
2022/09/19 03:32:51;;;;;;;5.43;4.93;;;20.90;61.70;;;;;;5103478;28;20052;-47
2022/09/19 03:35:17;;;;;;;5.07;4.68;;;20.90;61.90;;;;;;5104028;28;20020;-45
2022/09/19 03:37:43;;;;;;;5.00;4.50;;;20.90;62.10;;;;;;5104102;28;20032;-48
2022/09/19 03:40:10;;;;;;;6.00;5.35;;;20.90;62.20;;;;;;5103996;28;20024;-47
2022/09/19 03:42:37;;;;;;;4.95;4.55;;;20.90;62.30;;;;;;5098954;28;20031;-47
2022/09/19 03:45:06;;;;;;;5.18;4.75;;;20.90;62.40;;;;;;5103428;28;20044;-47
2022/09/19 03:47:32;;;;;;;5.07;4.68;;;20.90;62.50;;;;;;5100618;28;20024;-50
2022/09/19 03:49:59;;;;;;;4.65;4.25;;;20.90;62.60;;;;;;5096311;28;20108;-46
2022/09/19 03:52:27;;;;;;;4.80;4.38;;;20.90;62.70;;;;;;5100894;28;20052;-44
2022/09/19 03:54:54;;;;;;;5.38;4.93;;;20.90;62.70;;;;;;5104022;28;20770;-45
2022/09/19 03:57:20;;;;;;;5.43;4.93;;;20.90;62.90;;;;;;5098207;28;20033;-45
2022/09/19 03:59:46;;;;;;;5.25;4.75;;;20.90;62.90;;;;;;5103707;28;20114;-44
2022/09/19 04:02:12;;;;;;;5.28;4.78;;;20.90;63.00;;;;;;5107076;28;20416;-44
2022/09/19 04:04:40;;;;;;;5.38;4.88;;;20.90;63.10;;;;;;5103567;28;20032;-44
2022/09/19 04:07:06;;;;;;;5.13;4.72;;;20.90;63.20;;;;;;5103849;28;20051;-44
2022/09/19 04:09:32;;;;;;;5.20;4.77;;;20.90;64.00;;;;;;5103878;28;20086;-45
2022/09/19 04:12:00;;;;;;;3.77;3.47;;;20.90;63.40;;;;;;5103023;28;20279;-44
2022/09/19 04:14:28;;;;;;;4.78;4.32;;;20.90;63.50;;;;;;5117370;28;20027;-45
2022/09/19 04:16:55;;;;;;;;;;;20.90;63.60;;;;;;5103544;28;20443;-44
2022/09/19 04:19:24;;;;;;;5.03;4.57;;;20.90;63.60;;;;;;5103869;28;19919;-44
2022/09/19 04:21:50;;;;;;;4.88;4.47;;;20.90;63.70;;;;;;5107537;28;20032;-45
2022/09/19 04:24:16;;;;;;;5.03;4.60;;;20.90;63.80;;;;;;5101390;28;20028;-43
2022/09/19 04:26:43;;;;;;;5.75;5.25;;;20.90;63.80;;;;;;5103148;28;20027;-45
2022/09/19 04:29:09;;;;;;;4.95;4.55;;;20.90;63.90;;;;;;5102476;28;20086;-44
2022/09/19 04:31:39;;;;;;;5.10;4.70;;;20.90;63.90;;;;;;5095889;28;20048;-44
2022/09/19 04:34:06;;;;;;;5.47;4.97;;;20.90;63.90;;;;;;5082427;28;20028;-46
2022/09/19 04:36:33;;;;;;;5.07;4.68;;;20.90;64.00;;;;;;5084348;28;20551;-46
2022/09/19 04:39:02;;;;;;;5.00;4.40;;;20.90;64.00;;;;;;5081985;28;20045;-45
2022/09/19 04:41:33;;;;;;;5.22;4.75;;;20.90;64.20;;;;;;5082421;28;20029;-46
2022/09/19 04:44:00;;;;;;;5.85;5.32;;;20.90;64.10;;;;;;5081712;28;20058;-46
2022/09/19 04:46:27;;;;;;;5.28;4.78;;;20.90;64.20;;;;;;5082429;28;20048;-44
2022/09/19 04:48:54;;;;;;;5.40;4.90;;;20.90;64.20;;;;;;5063977;28;20036;-46
2022/09/19 04:51:20;;;;;;;4.93;4.53;;;20.90;64.20;;;;;;5066526;28;20624;-46
2022/09/19 04:53:46;;;;;;;4.93;4.43;;;20.90;64.20;;;;;;5082194;28;20024;-47
2022/09/19 04:56:13;;;;;;;5.30;4.80;;;20.90;64.20;;;;;;5082240;28;20020;-45
2022/09/19 04:58:40;;;;;;;4.95;4.55;;;20.90;64.30;;;;;;5082042;28;20059;-46
2022/09/19 05:01:06;;;;;;;;;;;20.90;64.40;;;;;;5082365;28;20504;-45
2022/09/19 05:03:33;;;;;;;5.03;4.57;;;21.00;64.50;;;;;;5081703;28;19916;-45
2022/09/19 05:06:00;;;;;;;5.50;5.00;;;20.90;64.50;;;;;;5081905;28;20047;-46
2022/09/19 05:08:28;;;;;;;5.17;4.77;;;20.90;64.60;;;;;;5084918;28;20036;-47
2022/09/19 05:10:55;;;;;;;5.07;4.68;;;20.90;64.60;;;;;;5082612;28;20059;-45
2022/09/19 05:13:23;;;;;;;4.97;4.57;;;20.90;64.60;;;;;;5080170;28;20063;-45
2022/09/19 05:15:50;;;;;;;4.80;4.40;;;21.00;64.70;;;;;;5081704;28;20051;-45
2022/09/19 05:18:20;;;;;;;4.72;4.25;;;20.90;64.60;;;;;;5081791;28;20100;-45
2022/09/19 05:20:46;;;;;;;4.57;4.18;;;21.00;64.70;;;;;;5081794;28;20024;-45
2022/09/19 05:23:13;;;;;;;4.75;4.35;;;21.00;64.70;;;;;;5081000;28;20025;-46
2022/09/19 05:25:40;;;;;;;4.78;4.35;;;21.00;64.70;;;;;;5085130;28;20047;-48
2022/09/19 05:28:06;;;;;;;5.90;4.18;;;21.00;64.70;;;;;;5082212;28;20033;-45
2022/09/19 05:30:33;;;;;;;5.40;4.90;;;21.00;64.90;;;;;;5077686;28;20028;-46
2022/09/19 05:32:59;;;;;;;4.97;4.57;;;21.00;64.80;;;;;;5080260;28;20055;-45
2022/09/19 05:35:26;;;;;;;7.10;4.90;;;21.00;64.80;;;;;;5103880;28;20056;-50
2022/09/19 05:37:52;;;;;;;5.10;4.60;;;21.00;64.80;;;;;;5103405;28;20059;-47
2022/09/19 05:40:19;;;;;;;5.03;4.55;;;21.00;64.90;;;;;;5101540;28;20028;-45
2022/09/19 05:42:50;;;;;;;4.40;4.00;;;21.00;64.90;;;;;;5101962;28;20024;-45
2022/09/19 05:45:16;;;;;;;4.85;4.45;;;21.00;64.90;;;;;;5099788;28;20288;-45
2022/09/19 05:47:42;;;;;;;4.80;4.40;;;21.00;64.90;;;;;;5100832;28;20085;-45
2022/09/19 05:50:10;;;;;;;6.03;4.53;;;21.00;64.90;;;;;;5101102;28;20054;-45
2022/09/19 05:55:22;;;;;;;4.57;4.18;;;21.00;65.00;;;;;;5101501;28;20035;-47
2022/09/19 05:57:52;;;;;;;4.75;4.35;;;21.00;65.00;;;;;;5083025;28;20032;-48
2022/09/19 06:00:19;;;;;;;4.78;4.38;;;21.00;65.00;;;;;;5104977;28;20028;-46
2022/09/19 06:02:55;;;;;;;4.78;4.38;;;21.00;65.00;;;;;;5100519;28;20028;-49
2022/09/19 06:05:22;;;;;;;4.80;4.40;;;21.00;65.10;;;;;;5083490;28;20102;-45
2022/09/19 06:07:50;;;;;;;4.45;4.05;;;21.00;65.10;;;;;;5101128;28;20086;-46
2022/09/19 06:10:17;;;;;;;4.90;4.40;;;21.00;65.10;;;;;;5100875;28;20031;-49
2022/09/19 06:12:43;;;;;;;4.55;4.15;;;21.00;65.10;;;;;;5100608;28;20366;-45
2022/09/19 06:15:09;;;;;;;4.13;3.83;;;21.00;65.10;;;;;;5099774;28;20070;-45
2022/09/19 06:17:35;;;;;;;4.50;4.10;;;21.00;65.20;;;;;;5102727;28;20031;-45
2022/09/19 06:20:02;;;;;;;4.78;4.38;;;21.00;65.10;;;;;;5101061;28;20024;-47
2022/09/19 06:22:29;;;;;;;4.78;4.38;;;21.00;65.20;;;;;;5100272;28;20035;-47
2022/09/19 06:24:55;;;;;;;;;;;21.00;65.20;;;;;;5101623;28;20044;-45
2022/09/19 06:27:21;;;;;;;4.60;4.10;;;21.00;65.20;;;;;;5101071;28;19937;-45
2022/09/19 06:29:48;;;;;;;5.43;4.70;;;21.00;65.20;;;;;;5101188;28;20036;-45
2022/09/19 06:32:14;;;;;;;6.10;4.32;;;21.00;65.20;;;;;;5100271;28;20312;-47
2022/09/19 06:34:40;;;;;;;4.70;4.30;;;21.00;65.30;;;;;;5101037;28;20027;-48
2022/09/19 06:37:07;;;;;;;4.67;4.27;;;21.00;65.20;;;;;;5100253;28;20047;-46
2022/09/19 06:39:33;;;;;;;4.43;4.03;;;21.00;65.30;;;;;;5100184;28;20131;-46
2022/09/19 06:41:59;;;;;;;5.05;4.30;;;21.00;65.40;;;;;;5100196;28;20034;-45
2022/09/19 06:44:25;;;;;;;5.50;5.00;;;21.00;65.50;;;;;;5099897;28;20042;-46
2022/09/19 06:46:51;;;;;;;5.47;4.97;;;21.00;65.70;;;;;;5100339;28;20086;-46
2022/09/19 06:49:17;;;;;;;5.03;4.53;;;21.00;66.50;;;;;;5099480;28;20028;-46
2022/09/19 06:51:44;;;;;;;4.78;4.38;;;21.00;66.00;;;;;;5100571;28;20091;-47
2022/09/19 06:54:10;;;;;;;5.22;4.80;;;21.00;66.00;;;;;;5099801;28;20036;-45
2022/09/19 06:56:36;;;;;;;4.90;4.50;;;21.00;66.10;;;;;;5099974;28;20031;-46
2022/09/19 06:59:02;;;;;;;4.72;4.32;;;21.00;66.10;;;;;;5098749;28;20036;-47
2022/09/19 07:01:28;;;;;;;5.00;4.50;;;21.00;66.00;;;;;;5099926;28;20104;-45
2022/09/19 07:03:54;;;;;;;4.63;4.03;;;21.00;65.90;;;;;;5101024;28;20043;-48
2022/09/19 07:06:20;;;;;;;4.65;4.25;;;21.00;65.80;;;;;;5099906;28;20024;-46
2022/09/19 07:08:46;;;;;;;4.53;4.13;;;21.00;66.10;;;;;;5100094;28;20024;-46
2022/09/19 07:11:13;;;;;;;4.68;4.28;;;21.00;65.80;;;;;;5100891;28;20022;-48
2022/09/19 07:13:39;;;;;;;4.97;4.50;;;21.00;65.90;;;;;;5097997;28;20043;-48
2022/09/19 07:16:06;;;;;;;5.03;4.57;;;21.00;65.90;;;;;;5100357;28;20032;-45
2022/09/19 07:18:36;;;;;;;4.35;3.95;;;21.00;66.00;;;;;;5099815;28;20062;-47
2022/09/19 07:21:02;;;;;;;5.10;4.63;;;21.00;66.00;;;;;;5099945;28;20672;-45
2022/09/19 07:23:28;;;;;;;4.78;4.38;;;21.00;66.00;;;;;;5099245;28;20043;-46
2022/09/19 07:25:55;;;;;;;4.80;4.40;;;21.00;66.00;;;;;;5100074;28;20028;-46
2022/09/19 07:28:21;;;;;;;5.07;4.57;;;21.00;66.00;;;;;;5100278;28;20027;-45
2022/09/19 07:30:48;;;;;;;4.87;4.47;;;21.00;66.10;;;;;;5099350;28;20275;-46
2022/09/19 07:33:15;;;;;;;6.63;4.40;;;21.00;66.10;;;;;;5099386;28;20752;-44
2022/09/19 07:35:42;;;;;;;5.05;4.63;;;21.00;66.10;;;;;;5100051;28;20071;-43
2022/09/19 07:38:16;;;;;;;5.22;4.72;;;21.00;66.10;;;;;;5099903;28;20040;-44
2022/09/19 07:40:42;;;;;;;4.95;4.55;;;21.00;66.20;;;;;;5099446;28;20024;-45
2022/09/19 07:43:12;;;;;;;5.20;4.70;;;21.00;66.10;;;;;;5100243;28;20024;-45
2022/09/19 07:45:39;;;;;;;5.00;4.53;;;21.00;66.20;;;;;;5102201;28;20080;-45
2022/09/19 07:48:05;;;;;;;4.90;4.50;;;21.00;66.10;;;;;;5081394;28;20028;-45
2022/09/19 07:50:32;;;;;;;4.93;4.40;;;21.00;66.10;;;;;;5099543;28;20122;-45
2022/09/19 07:52:59;;;;;;;5.10;4.70;;;21.00;66.10;;;;;;5100917;28;20036;-47
2022/09/19 07:55:26;;;;;;;4.70;4.30;;;21.00;66.10;;;;;;5103041;28;20031;-47
2022/09/19 07:57:53;;;;;;;4.65;4.25;;;21.00;66.00;;;;;;5101715;28;20074;-47
2022/09/19 08:00:19;;;;;;;5.07;4.38;;;21.00;66.10;;;;;;5100934;28;20174;-42
2022/09/19 08:03:02;;;;;;;4.70;4.30;;;21.00;66.10;;;;;;5100570;28;21124;-50
2022/09/19 08:05:30;;;;;;;4.47;4.07;;;21.00;66.20;;;;;;5098687;28;20036;-46
2022/09/19 08:07:57;;;;;;;5.43;4.65;;;21.00;66.10;;;;;;5081174;28;20111;-47
2022/09/19 08:10:23;;;;;;;5.18;4.70;;;21.00;66.10;;;;;;5081346;28;20093;-50
2022/09/19 08:12:49;;;;;;;4.43;4.03;;;21.00;66.20;;;;;;5103204;28;20036;-45
2022/09/19 08:15:17;;;;;;;8.02;4.35;;;21.00;65.90;;;;;;5103945;28;20082;-46
2022/09/19 08:18:00;;;;;;;5.43;4.65;;;21.00;66.00;;;;;;5103361;28;20043;-45
2022/09/19 08:20:27;;;;;;;12.65;5.18;;;21.00;66.20;;;;;;5104288;28;20016;-46
2022/09/19 08:23:03;;;;;;;16.42;6.30;;;21.00;67.00;;;;;;5103193;28;20024;-44
2022/09/19 08:25:32;;;;;;;22.50;5.78;;;21.00;66.50;;;;;;5102284;28;20043;-45
2022/09/19 08:27:58;;;;;;;10.98;5.88;;;21.00;66.90;;;;;;5105707;28;20024;-49
2022/09/19 08:30:26;;;;;;;15.63;6.50;;;21.00;67.30;;;;;;5102774;28;20032;-45
2022/09/19 08:32:55;;;;;;;17.08;5.10;;;21.00;67.70;;;;;;5108469;28;20059;-46
2022/09/19 08:35:21;;;;;;;10.63;5.35;;;21.00;67.70;;;;;;5102753;28;20111;-45
2022/09/19 08:37:52;;;;;;;11.02;5.40;;;21.00;67.70;;;;;;5102663;28;20039;-45
2022/09/19 08:40:30;;;;;;;13.43;6.00;;;21.00;67.70;;;;;;5083976;28;20020;-46
2022/09/19 08:43:12;;;;;;;6.57;5.05;;;21.10;67.80;;;;;;5085028;28;20024;-46
2022/09/19 08:45:59;;;;;;;8.95;5.25;;;21.10;67.70;;;;;;5101356;28;20892;-46
2022/09/19 08:48:37;;;;;;;11.20;5.80;;;21.10;67.50;;;;;;5102218;28;20028;-46
2022/09/19 08:51:13;;;;;;;6.80;5.65;;;21.10;67.40;;;;;;5085222;28;20436;-47
2022/09/19 08:53:41;;;;;;;6.82;5.22;;;21.00;67.30;;;;;;5081783;28;20040;-45
2022/09/19 08:56:08;;;;;;;7.97;5.57;;;21.00;67.10;;;;;;5067513;28;20484;-45
2022/09/19 08:58:34;;;;;;;7.50;5.35;;;21.00;67.00;;;;;;5101890;28;20055;-45
2022/09/19 09:01:01;;;;;;;8.17;5.50;;;21.10;67.00;;;;;;5083690;28;20079;-46
2022/09/19 09:03:53;;;;;;;8.93;4.90;;;21.10;67.00;;;;;;5083894;28;20032;-46
2022/09/19 09:06:57;;;;;;;7.20;5.28;;;21.00;66.90;;;;;;5065353;28;20029;-46
2022/09/19 09:09:54;;;;;;;6.63;5.05;;;21.00;66.70;;;;;;5101814;28;20054;-45
2022/09/19 09:12:40;;;;;;;5.95;4.82;;;21.00;66.70;;;;;;5099862;28;20756;-45
2022/09/19 09:15:49;;;;;;;6.68;5.28;;;21.00;66.60;;;;;;5101198;28;20036;-47
2022/09/19 09:18:40;;;;;;;5.65;5.07;;;21.00;66.50;;;;;;5064557;28;20047;-45
2022/09/19 09:21:25;;;;;;;7.70;4.97;;;21.00;66.50;;;;;;5100838;28;20028;-45
2022/09/19 09:23:55;;;;;;;7.55;5.22;;;21.00;66.50;;;;;;5102726;28;20028;-46
2022/09/19 09:26:25;;;;;;;6.75;4.97;;;21.00;66.40;;;;;;5087449;28;20053;-45
2022/09/19 09:29:00;;;;;;;9.15;5.53;;;21.00;66.40;;;;;;5067092;28;20554;-45
2022/09/19 09:31:30;;;;;;;5.97;5.20;;;21.00;66.40;;;;;;5093083;28;20112;-47
2022/09/19 09:34:00;;;;;;;5.45;4.80;;;21.00;66.30;;;;;;5101058;28;20643;-45
2022/09/19 09:36:42;;;;;;;5.82;4.95;;;21.00;66.30;;;;;;5066877;28;20020;-47
2022/09/19 09:39:16;;;;;;;6.40;4.68;;;21.00;66.30;;;;;;5083505;28;20032;-46
2022/09/19 09:41:52;;;;;;;5.70;4.80;;;21.00;66.30;;;;;;5083762;28;20046;-46
2022/09/19 09:44:42;;;;;;;5.65;4.75;;;21.00;66.20;;;;;;5082455;28;20040;-46
2022/09/19 09:47:24;;;;;;;6.28;5.00;;;21.00;66.30;;;;;;5100878;28;20028;-47
2022/09/19 09:49:51;;;;;;;6.25;4.93;;;21.00;66.20;;;;;;5083243;28;20555;-47
2022/09/19 09:52:35;;;;;;;7.03;5.25;;;21.00;66.20;;;;;;5082865;28;20044;-47
2022/09/19 09:58:21;;;;;;;6.20;5.25;;;21.00;66.30;;;;;;5101727;28;20063;-47
2022/09/19 10:03:52;;;;;;;5.78;4.80;;;20.90;66.10;;;;;;5086211;28;20062;-45
2022/09/19 10:06:48;;;;;;;4.93;4.35;;;20.90;66.00;;;;;;5099667;28;20111;-45
2022/09/19 10:09:23;;;;;;;6.03;5.28;;;20.90;66.00;;;;;;5065943;28;20114;-45
2022/09/19 10:11:59;;;;;;;5.57;5.00;;;20.90;65.90;;;;;;5101214;28;20098;-46
2022/09/19 10:14:31;;;;;;;5.30;4.78;;;20.90;65.90;;;;;;5065442;28;20028;-46
2022/09/19 10:17:01;;;;;;;5.50;4.97;;;20.90;65.90;;;;;;5100479;28;20032;-49
2022/09/19 10:19:41;;;;;;;5.80;4.80;;;20.90;65.90;;;;;;5081966;28;20036;-47
2022/09/19 10:22:14;;;;;;;5.97;5.05;;;20.90;65.80;;;;;;5079121;28;20178;-47
2022/09/19 10:24:53;;;;;;;5.15;4.63;;;20.90;65.90;;;;;;5093146;28;20028;-46
2022/09/19 10:27:31;;;;;;;5.40;4.65;;;20.90;65.70;;;;;;5092480;28;20110;-46
2022/09/19 10:29:59;;;;;;;5.40;4.75;;;20.90;65.70;;;;;;5104524;28;20020;-47
2022/09/19 10:32:39;;;;;;;5.93;4.80;;;20.90;65.70;;;;;;5099612;28;20075;-49
2022/09/19 10:35:34;;;;;;;5.30;4.80;;;20.90;65.70;;;;;;5100503;28;20567;-49
2022/09/19 10:38:01;;;;;;;5.90;4.88;;;20.90;65.70;;;;;;5100522;28;20044;-48
2022/09/19 10:40:31;;;;;;;4.95;4.50;;;20.80;65.60;;;;;;5099600;28;20040;-49
2022/09/19 10:42:58;;;;;;;5.72;4.93;;;20.90;65.70;;;;;;5100400;28;20043;-47
2022/09/19 10:45:29;;;;;;;5.38;4.88;;;20.90;65.70;;;;;;5081749;28;20032;-47
2022/09/19 10:48:05;;;;;;;5.80;5.20;;;20.90;65.70;;;;;;5100189;28;20059;-49
2022/09/19 10:50:31;;;;;;;5.57;5.07;;;20.90;65.70;;;;;;5082770;28;20025;-46
2022/09/19 10:53:04;;;;;;;6.85;5.10;;;20.80;65.60;;;;;;5100345;28;20460;-46
2022/09/19 10:55:33;;;;;;;4.60;4.20;;;20.80;65.60;;;;;;5081955;28;20024;-46
2022/09/19 10:58:22;;;;;;;5.53;4.95;;;20.80;65.60;;;;;;5078766;28;20032;-47
2022/09/19 11:00:51;;;;;;;5.68;5.10;;;20.80;65.60;;;;;;5080222;28;20031;-47
2022/09/19 11:03:28;;;;;;;5.70;5.00;;;20.80;65.70;;;;;;5079079;28;20024;-47
2022/09/19 11:06:06;;;;;;;5.57;4.93;;;20.80;65.60;;;;;;5100075;28;20039;-47
2022/09/19 11:08:37;;;;;;;;;;;20.80;65.60;;;;;;5100238;28;20028;-47
2022/09/19 11:11:19;;;;;;;5.05;4.55;;;20.80;65.60;;;;;;5101917;28;19915;-47
2022/09/19 11:13:46;;;;;;;5.30;4.80;;;20.80;65.70;;;;;;5090935;28;20024;-49
2022/09/19 11:16:25;;;;;;;5.23;4.73;;;20.80;65.60;;;;;;5082039;28;20040;-48
2022/09/19 11:19:02;;;;;;;5.15;4.70;;;20.80;65.60;;;;;;5081827;28;20375;-47
2022/09/19 11:21:59;;;;;;;5.55;4.75;;;20.80;65.60;;;;;;5098750;28;20023;-49
2022/09/19 11:24:44;;;;;;;4.50;4.10;;;20.80;65.60;;;;;;5097805;28;20039;-47
2022/09/19 11:27:47;;;;;;;5.35;4.85;;;20.70;65.60;;;;;;5099288;28;20032;-45
2022/09/19 11:30:28;;;;;;;4.90;4.40;;;20.70;65.60;;;;;;5101953;28;20074;-45
2022/09/19 11:33:21;;;;;;;5.15;4.65;;;20.70;65.60;;;;;;5085339;28;20052;-46
2022/09/19 11:36:23;;;;;;;5.55;5.05;;;20.70;65.60;;;;;;5102310;28;20048;-45
2022/09/19 11:39:03;;;;;;;5.75;5.05;;;20.70;65.60;;;;;;5002800;28;20086;-45
2022/09/19 11:41:35;;;;;;;5.03;4.53;;;20.70;65.60;;;;;;5021894;28;20033;-44
2022/09/19 11:44:08;;;;;;;4.70;4.30;;;20.70;65.60;;;;;;5022704;28;20069;-44
2022/09/19 11:46:40;;;;;;;5.38;4.88;;;20.70;65.60;;;;;;5048543;28;20025;-46
2022/09/19 11:49:16;;;;;;;5.50;4.63;;;20.70;65.60;;;;;;5063018;28;20040;-47
2022/09/19 11:51:49;;;;;;;5.35;4.85;;;20.70;65.60;;;;;;5062764;28;20064;-48
2022/09/19 11:54:29;;;;;;;5.13;4.60;;;20.70;65.60;;;;;;5043730;28;20108;-45
2022/09/19 11:57:01;;;;;;;4.90;4.47;;;20.60;65.50;;;;;;5059465;28;20029;-45
2022/09/19 11:59:36;;;;;;;5.07;4.68;;;20.70;65.60;;;;;;5037460;28;20041;-45
2022/09/19 12:02:34;;;;;;;5.20;4.75;;;20.60;65.50;;;;;;5061524;28;20049;-45
2022/09/19 12:05:16;;;;;;;5.18;4.78;;;20.70;65.70;;;;;;5062922;28;20823;-45
2022/09/19 12:07:56;;;;;;;5.32;4.82;;;20.60;65.60;;;;;;5062792;28;20029;-45
2022/09/19 12:10:44;;;;;;;5.07;4.57;;;20.60;65.60;;;;;;5062315;28;20089;-49
2022/09/19 12:13:11;;;;;;;5.28;4.78;;;20.60;65.60;;;;;;5039266;28;20049;-45
2022/09/19 12:15:38;;;;;;;5.45;4.80;;;20.60;65.60;;;;;;5084821;28;20029;-45
2022/09/19 12:18:13;;;;;;;5.05;4.63;;;20.60;65.60;;;;;;5125100;28;20047;-46
2022/09/19 12:20:47;;;;;;;5.18;4.78;;;20.60;65.60;;;;;;5124452;28;20487;-46
2022/09/19 12:26:21;;;;;;;5.00;4.60;;;20.60;65.60;;;;;;5089861;28;20062;-45
2022/09/19 12:29:19;;;;;;;5.63;4.57;;;20.60;65.60;;;;;;5087941;28;20097;-45
2022/09/19 12:31:50;;;;;;;5.10;4.55;;;20.60;65.60;;;;;;5101844;28;20056;-46
2022/09/19 12:34:39;;;;;;;4.90;4.40;;;20.60;65.60;;;;;;5103841;28;20027;-47
2022/09/19 12:37:35;;;;;;;5.28;4.85;;;20.60;65.60;;;;;;5103622;28;20035;-46
2022/09/19 12:40:17;;;;;;;5.13;4.72;;;20.60;65.60;;;;;;5104877;28;20040;-46
2022/09/19 12:43:38;;;;;;;5.20;4.70;;;20.60;65.60;;;;;;5002835;28;20046;-45
2022/09/19 12:46:14;;;;;;;5.43;4.93;;;20.60;65.70;;;;;;4992750;28;20029;-44
2022/09/19 12:48:52;;;;;;;4.88;4.38;;;20.60;65.70;;;;;;5035534;28;20066;-44
2022/09/19 12:51:23;;;;;;;4.88;4.47;;;20.60;65.60;;;;;;5021247;28;20029;-46
2022/09/19 12:54:02;;;;;;;5.00;4.60;;;20.50;65.60;;;;;;5005803;28;20214;-45
2022/09/19 12:56:36;;;;;;;4.85;4.45;;;20.50;65.60;;;;;;5020184;28;20033;-45
2022/09/19 12:59:25;;;;;;;5.03;4.57;;;20.50;65.60;;;;;;5021014;28;20042;-45
2022/09/19 13:01:58;;;;;;;4.90;4.50;;;20.50;65.70;;;;;;5021319;28;20077;-44
2022/09/19 13:04:38;;;;;;;5.22;4.72;;;20.50;65.70;;;;;;5021776;28;20030;-46
2022/09/19 13:07:33;;;;;;;5.00;4.60;;;20.50;65.70;;;;;;5021455;28;20076;-45
2022/09/19 13:10:43;;;;;;;4.93;4.50;;;20.50;65.70;;;;;;5021772;28;20033;-44
2022/09/19 13:13:28;;;;;;;5.00;4.60;;;20.50;65.70;;;;;;4982208;28;20038;-46
2022/09/19 13:15:56;;;;;;;5.00;4.60;;;20.50;65.70;;;;;;4982432;28;20027;-44
2022/09/19 13:23:56;;;;;;;5.20;4.72;;;20.50;65.70;;;;;;5027057;28;20043;-44
2022/09/19 13:26:35;;;;;;;5.57;5.07;;;20.50;65.80;;;;;;5024451;28;20041;-46
2022/09/19 13:29:26;;;;;;;5.05;4.65;;;20.50;65.80;;;;;;5041183;28;20121;-44
2022/09/19 13:31:59;;;;;;;4.85;4.32;;;20.50;65.80;;;;;;5040512;28;20064;-45
2022/09/19 13:34:40;;;;;;;5.20;4.70;;;20.50;65.80;;;;;;5041332;28;20022;-46
2022/09/19 13:37:32;;;;;;;5.10;4.70;;;20.50;65.70;;;;;;5040880;28;20051;-46
2022/09/19 13:40:15;;;;;;;5.05;4.65;;;20.50;65.80;;;;;;5040881;28;20037;-46